KWDG/WDG METAR and TAF weather

Enter ICAO airport designator
Station Type Date Time Source
KWDG METAR 2019/08/26 08:15 UTC NOAA

KWDG 260815Z AUTO 15004KT 2 1/2SM -RA CLR 22/22 A2974 RMK AO2


Station Type Date Time Source
KWDG Decoded METAR 2019/08/26 08:15 UTC NOAA

Station name not available
Aug 26, 2019 - 04:15 AM EDT / 2019.08.26 0815 UTC
Wind: from the SSE (150 degrees) at 5 MPH (4 KT):0
Visibility: 2 1/2 mile(s):0
Sky conditions: clear
Weather: light rain
Temperature: 71 F (22 C)
Dew Point: 71 F (22 C)
Relative Humidity: 100%
Pressure (altimeter): 29.74 in. Hg (1007 hPa)
ob: KWDG 260815Z AUTO 15004KT 2 1/2SM -RA CLR 22/22 A2974 RMK AO2
cycle: 8

Station Type Date Time Source
KWDG TAF UTC NOAA

Error!

Example: see airport list